Time;durP1;ratioP1;P1;durP2;ratioP2;P2;SDS_P1;SDS_P2;PMS_P1;PMS_P2;Temp;Humidity;BMP_temperature;BMP_pressure;BME280_temperature;BME280_humidity;BME280_pressure;Samples;Min_cycle;Max_cycle;Signal;HPM_P1;HPM_P2
2024/02/14 00:01:58;;;;;;;35.70;17.30;;;;;;;2.23;84.47;99094.82;435227;1256;106608;-40
2024/02/14 00:12:03;;;;;;;52.30;20.90;;;;;;;2.17;84.63;99101.36;435068;1256;99333;-39
2024/02/14 00:22:10;;;;;;;30.10;16.20;;;;;;;2.12;84.72;99106.17;435247;1254;110979;-40
2024/02/14 00:32:17;;;;;;;31.40;16.10;;;;;;;2.10;84.68;99112.98;435059;1256;108658;-39
2024/02/14 00:42:25;;;;;;;25.00;15.10;;;;;;;2.22;84.88;99114.75;435133;1256;99222;-41
2024/02/14 00:52:32;;;;;;;26.10;13.90;;;;;;;2.40;85.15;99117.96;435130;1256;112119;-40
2024/02/14 01:02:39;;;;;;;31.40;17.60;;;;;;;2.43;85.16;99118.39;435308;1253;108468;-40
2024/02/14 01:12:46;;;;;;;30.60;17.00;;;;;;;2.36;85.38;99119.79;435301;1255;99200;-41
2024/02/14 01:33:00;;;;;;;34.70;18.20;;;;;;;2.06;85.27;99107.05;435172;1256;107712;-40
2024/02/14 01:43:08;;;;;;;31.60;19.90;;;;;;;1.96;85.44;99103.90;435204;1256;97989;-40
2024/02/14 01:53:16;;;;;;;26.50;17.70;;;;;;;2.00;85.52;99097.41;434982;1256;109462;-41
2024/02/14 02:03:22;;;;;;;42.10;22.70;;;;;;;2.05;85.70;99101.15;435013;1256;99851;-40
2024/02/14 02:13:30;;;;;;;53.50;29.50;;;;;;;2.01;85.87;99104.48;436001;1255;111548;-40
2024/02/14 02:23:36;;;;;;;53.60;27.10;;;;;;;1.80;85.87;99104.08;435467;1254;107697;-40
2024/02/14 02:53:57;;;;;;;40.50;20.80;;;;;;;1.38;85.86;99110.04;435343;1250;108721;-40
2024/02/14 03:04:04;;;;;;;40.30;22.90;;;;;;;1.26;85.94;99112.88;435368;1256;99265;-40
2024/02/14 03:14:11;;;;;;;69.80;37.20;;;;;;;1.13;86.26;99123.70;435395;1256;107451;-39
2024/02/14 03:24:19;;;;;;;83.30;47.40;;;;;;;1.05;86.53;99124.45;435378;1251;98005;-39
2024/02/14 03:34:30;;;;;;;94.40;47.80;;;;;;;1.01;86.63;99129.88;435303;1256;110831;-39
2024/02/14 04:04:50;;;;;;;37.00;24.50;;;;;;;1.15;87.15;99141.77;435218;1256;112220;-39
2024/02/14 04:14:57;;;;;;;63.70;34.30;;;;;;;1.16;87.20;99150.64;434664;1256;702636;-40
2024/02/14 04:25:03;;;;;;;64.00;36.20;;;;;;;1.09;87.52;99151.06;435399;1255;98014;-39
2024/02/14 04:35:08;;;;;;;64.00;37.90;;;;;;;1.06;87.64;99152.27;435422;1256;110740;-40
2024/02/14 04:45:15;;;;;;;54.00;36.10;;;;;;;0.89;87.32;99150.86;435290;1256;99260;-41
2024/02/14 04:55:23;;;;;;;57.80;34.20;;;;;;;0.83;87.37;99149.51;435237;1250;98081;-39
2024/02/14 05:05:30;;;;;;;61.90;38.10;;;;;;;0.77;87.69;99146.06;435299;1250;112236;-40
2024/02/14 05:15:37;;;;;;;128.80;63.00;;;;;;;0.65;87.56;99151.42;435326;1251;107902;-40
2024/02/14 05:25:44;;;;;;;141.70;72.70;;;;;;;0.44;87.75;99159.77;435313;1256;99221;-39
2024/02/14 05:35:52;;;;;;;117.70;62.00;;;;;;;0.20;87.88;99161.92;435430;1254;111706;-39
2024/02/14 05:45:59;;;;;;;120.40;69.80;;;;;;;0.06;87.84;99159.91;435419;1250;107237;-39
2024/02/14 05:56:04;;;;;;;107.80;58.50;;;;;;;0.06;87.82;99162.66;435245;1257;99218;-39
2024/02/14 06:06:11;;;;;;;79.70;45.60;;;;;;;0.03;87.97;99165.41;435237;1255;108685;-39
2024/02/14 06:16:19;;;;;;;101.10;56.30;;;;;;;0.04;87.98;99170.33;435344;1251;99224;-39
2024/02/14 06:26:26;;;;;;;127.80;63.20;;;;;;;0.01;88.37;99172.50;435268;1258;111962;-39
2024/02/14 06:36:34;;;;;;;135.40;64.90;;;;;;;-0.02;88.64;99182.47;435365;1255;107402;-38
2024/02/14 06:46:42;;;;;;;100.70;56.40;;;;;;;0.16;88.90;99186.41;435335;1251;99181;-41
2024/02/14 06:56:49;;;;;;;94.30;52.70;;;;;;;0.40;89.18;99191.85;435301;1264;107578;-38
2024/02/14 07:06:55;;;;;;;100.10;52.20;;;;;;;0.70;89.66;99200.09;435365;1257;99260;-40
2024/02/14 07:17:03;;;;;;;90.60;45.70;;;;;;;1.13;89.93;99205.91;435360;1264;110694;-39
2024/02/14 07:27:09;;;;;;;104.00;56.60;;;;;;;1.60;90.43;99202.58;435298;1257;108212;-39
2024/02/14 07:47:24;;;;;;;69.90;42.00;;;;;;;3.76;90.91;99189.47;435037;1256;108616;-40
2024/02/14 07:57:31;;;;;;;83.50;46.60;;;;;;;5.04;90.43;99182.73;435277;1254;99212;-40
2024/02/14 08:07:38;;;;;;;98.80;53.00;;;;;;;5.92;89.82;99183.31;435283;1255;111755;-39
2024/02/14 08:17:45;;;;;;;99.60;52.50;;;;;;;6.61;88.57;99188.25;435234;1264;108409;-40
2024/02/14 08:27:53;;;;;;;98.00;50.60;;;;;;;7.23;88.60;99190.40;435358;1250;98576;-39
2024/02/14 08:37:59;;;;;;;87.00;49.10;;;;;;;7.16;86.99;99188.06;435352;1256;108157;-40
2024/02/14 08:48:07;;;;;;;92.50;46.90;;;;;;;6.87;86.48;99189.98;435254;1264;98008;-40
2024/02/14 08:58:14;;;;;;;91.40;43.10;;;;;;;6.72;85.76;99186.80;435309;1251;112459;-40
2024/02/14 09:08:20;;;;;;;77.20;37.30;;;;;;;6.94;85.38;99184.98;435294;1257;107918;-40
2024/02/14 09:18:28;;;;;;;65.60;29.10;;;;;;;7.12;84.94;99180.08;435375;1256;99274;-40
2024/02/14 09:38:42;;;;;;;26.70;13.10;;;;;;;7.45;83.00;99182.38;435303;1264;107700;-40
2024/02/14 09:48:49;;;;;;;29.40;13.50;;;;;;;7.37;80.56;99176.96;435451;1251;98840;-40
2024/02/14 10:09:02;;;;;;;23.90;11.70;;;;;;;7.93;80.35;99162.21;435403;1251;99234;-40
2024/02/14 10:19:15;;;;;;;22.10;10.90;;;;;;;7.89;78.20;99155.29;435380;1251;111320;-40
2024/02/14 10:29:21;;;;;;;21.60;12.00;;;;;;;7.93;77.21;99146.58;435280;1254;106980;-40
2024/02/14 10:39:30;;;;;;;29.90;14.60;;;;;;;7.99;75.32;99144.27;435312;1251;99221;-38
2024/02/14 10:59:48;;;;;;;21.70;12.30;;;;;;;8.14;74.63;99119.62;435338;1254;107677;-39
2024/02/14 11:10:01;;;;;;;16.10;9.50;;;;;;;8.38;74.79;99118.86;435501;1254;99173;-40
2024/02/14 11:20:21;;;;;;;16.90;9.50;;;;;;;8.68;74.94;99098.46;435326;1251;111555;-40
2024/02/14 11:30:36;;;;;;;15.20;10.20;;;;;;;8.90;74.38;99086.02;435128;1251;107627;-40
2024/02/14 11:40:44;;;;;;;12.10;6.40;;;;;;;8.92;72.50;99081.02;435376;1250;98017;-39
2024/02/14 11:50:52;;;;;;;8.20;5.20;;;;;;;8.98;72.36;99070.22;435530;1251;111105;-40
2024/02/14 12:11:12;;;;;;;13.00;6.60;;;;;;;9.01;70.55;99051.88;435469;1251;98472;-41
2024/02/14 12:21:19;;;;;;;11.00;6.80;;;;;;;9.01;70.25;99055.77;435378;1255;110473;-40
2024/02/14 12:31:26;;;;;;;10.10;6.90;;;;;;;9.05;69.79;99046.01;435335;1251;108178;-40
2024/02/14 12:41:37;;;;;;;13.40;7.50;;;;;;;9.00;69.99;99043.43;435440;1251;99197;-40
2024/02/14 12:51:43;;;;;;;12.10;6.80;;;;;;;8.84;69.90;99050.84;435317;1250;112450;-39
2024/02/14 13:01:51;;;;;;;15.20;9.00;;;;;;;8.91;69.73;99044.11;435274;1254;108648;-39
2024/02/14 13:11:58;;;;;;;13.80;8.40;;;;;;;9.00;69.92;99032.19;435379;1250;99227;-40
2024/02/14 13:22:04;;;;;;;12.70;7.30;;;;;;;8.93;69.34;99025.70;435360;1250;112030;-40
2024/02/14 13:32:12;;;;;;;15.20;8.20;;;;;;;8.79;69.46;99022.42;435354;1251;107117;-40
2024/02/14 13:42:19;;;;;;;21.60;7.10;;;;;;;8.91;69.08;99016.27;435302;1251;97971;-39
2024/02/14 13:52:27;;;;;;;13.90;7.30;;;;;;;8.87;68.92;99010.21;435311;1264;107192;-40
2024/02/14 14:02:36;;;;;;;10.40;6.90;;;;;;;8.73;67.60;99006.70;435296;1254;99225;-40
2024/02/14 14:12:42;;;;;;;11.10;7.00;;;;;;;8.64;67.78;99009.00;435378;1255;111149;-39
2024/02/14 14:22:49;;;;;;;9.50;6.40;;;;;;;8.81;68.14;99011.91;435368;1251;107344;-40
2024/02/14 14:32:56;;;;;;;14.20;7.20;;;;;;;8.68;66.96;99011.42;435496;1250;98706;-40
2024/02/14 14:43:04;;;;;;;13.70;8.30;;;;;;;8.58;66.69;99007.35;435632;1254;111857;-40
2024/02/14 14:53:10;;;;;;;15.90;9.30;;;;;;;8.29;67.14;99011.14;435460;1254;106349;-40
2024/02/14 15:03:17;;;;;;;18.40;8.80;;;;;;;8.02;67.61;99006.52;435305;1254;99127;-40
2024/02/14 15:13:24;;;;;;;17.60;8.70;;;;;;;7.75;67.77;99007.50;435944;1250;112237;-40
2024/02/14 15:23:31;;;;;;;19.20;10.20;;;;;;;7.53;68.17;99003.73;436300;1250;107459;-40
2024/02/14 15:33:37;;;;;;;26.10;12.40;;;;;;;7.37;68.51;99000.21;435736;1250;99243;-40
2024/02/14 15:43:45;;;;;;;45.80;18.50;;;;;;;7.21;68.83;98997.23;435769;1254;112189;-40
2024/02/14 15:53:53;;;;;;;35.40;16.40;;;;;;;7.01;69.15;98996.61;435548;1250;108199;-40
2024/02/14 16:04:00;;;;;;;51.70;18.50;;;;;;;6.76;69.54;99001.61;435985;1251;98888;-40
2024/02/14 16:14:07;;;;;;;60.50;23.20;;;;;;;6.46;69.82;99011.64;435326;1250;455047;-40
2024/02/14 16:24:15;;;;;;;65.60;29.40;;;;;;;6.17;70.12;99010.29;437132;1254;109356;-40
2024/02/14 16:34:22;;;;;;;73.60;34.90;;;;;;;5.99;70.28;99017.48;436732;1251;99240;-39
2024/02/14 16:44:30;;;;;;;58.90;26.70;;;;;;;5.92;70.67;99025.17;435873;1250;108339;-40
2024/02/14 16:54:37;;;;;;;65.50;30.50;;;;;;;5.81;70.92;99024.45;436899;1250;99215;-39
2024/02/14 17:04:44;;;;;;;62.50;29.40;;;;;;;5.76;71.46;99036.80;436536;1251;111149;-39
2024/02/14 17:14:52;;;;;;;57.90;29.00;;;;;;;5.68;71.69;99036.77;437290;1251;107403;-40
2024/02/14 17:25:00;;;;;;;60.30;31.20;;;;;;;5.62;71.72;99040.22;437319;1254;97949;-39
2024/02/14 17:35:08;;;;;;;66.40;34.90;;;;;;;5.61;71.83;99041.86;436538;1250;111439;-40
2024/02/14 17:45:18;;;;;;;54.60;27.60;;;;;;;5.66;71.82;99043.80;435669;1256;107640;-41
2024/02/14 17:55:26;;;;;;;53.10;28.10;;;;;;;5.76;71.99;99039.66;435384;1251;98122;-40
2024/02/14 18:05:36;;;;;;;73.80;39.70;;;;;;;5.74;72.19;99042.31;435201;1254;110593;-40
2024/02/14 18:15:43;;;;;;;94.80;47.10;;;;;;;5.66;72.36;99043.65;435273;1254;107489;-40
2024/02/14 18:25:50;;;;;;;91.20;41.80;;;;;;;5.59;72.46;99042.73;435392;1254;98613;-40
2024/02/14 18:35:57;;;;;;;95.10;41.40;;;;;;;5.58;72.67;99043.21;435413;1250;111215;-40
2024/02/14 18:46:04;;;;;;;69.00;34.40;;;;;;;5.66;72.95;99048.21;435156;1254;108189;-40
2024/02/14 19:06:21;;;;;;;80.60;40.90;;;;;;;5.77;73.45;99053.84;435434;1263;112388;-40
2024/02/14 19:16:29;;;;;;;81.80;38.10;;;;;;;5.71;73.70;99062.11;435236;1251;108845;-41
2024/02/14 19:26:37;;;;;;;74.50;38.50;;;;;;;5.67;73.93;99059.37;435348;1251;99100;-40
2024/02/14 19:36:44;;;;;;;63.30;29.60;;;;;;;5.72;74.18;99060.55;435212;1254;111659;-40
2024/02/14 19:46:51;;;;;;;48.50;26.70;;;;;;;5.81;74.56;99064.13;435261;1254;108419;-39
2024/02/14 19:56:58;;;;;;;64.70;33.00;;;;;;;5.85;74.94;99063.35;435382;1250;98255;-40
2024/02/14 20:07:07;;;;;;;63.30;30.60;;;;;;;5.81;75.25;99058.77;435754;1254;107421;-41
2024/02/14 20:17:14;;;;;;;75.70;33.90;;;;;;;5.77;75.60;99051.75;435439;1250;98612;-40
2024/02/14 20:27:23;;;;;;;52.30;25.60;;;;;;;5.80;75.84;99047.46;435318;1254;110800;-40
2024/02/14 20:37:29;;;;;;;49.70;23.30;;;;;;;5.89;76.07;99051.45;435354;1254;107507;-41
2024/02/14 20:47:37;;;;;;;67.40;35.00;;;;;;;5.92;76.49;99048.64;435775;1251;98013;-39
2024/02/14 20:57:44;;;;;;;106.60;52.50;;;;;;;5.87;76.68;99049.94;435415;1254;107905;-40
2024/02/14 21:07:52;;;;;;;108.70;57.60;;;;;;;5.79;77.04;99047.92;435238;1250;99214;-40
2024/02/14 21:17:59;;;;;;;69.80;30.50;;;;;;;5.81;77.08;99047.91;435111;1254;111810;-41
2024/02/14 21:28:06;;;;;;;60.40;27.40;;;;;;;5.90;77.39;99045.61;435285;1257;108343;-40
2024/02/14 21:48:21;;;;;;;59.50;33.80;;;;;;;5.88;77.89;99046.05;435330;1255;107699;-41
2024/02/14 21:58:28;;;;;;;54.70;30.80;;;;;;;5.82;78.12;99048.67;435501;1250;97909;-40
2024/02/14 22:08:35;;;;;;;43.80;22.10;;;;;;;5.87;78.29;99060.96;435419;1256;110859;-41
2024/02/14 22:18:44;;;;;;;44.20;21.80;;;;;;;5.98;78.41;99060.68;435172;1256;109154;-40
2024/02/14 22:28:52;;;;;;;43.70;24.90;;;;;;;6.03;78.61;99058.17;435428;1251;98397;-39
2024/02/14 22:38:59;;;;;;;49.60;27.00;;;;;;;6.00;78.75;99055.56;435394;1250;108186;-42
2024/02/14 22:49:06;;;;;;;47.10;25.70;;;;;;;5.94;78.98;99058.04;435394;1251;99290;-40
2024/02/14 22:59:14;;;;;;;41.20;22.90;;;;;;;5.97;79.07;99053.88;435355;1256;111270;-39
2024/02/14 23:09:23;;;;;;;38.30;20.30;;;;;;;6.05;79.27;99053.23;435328;1256;108391;-40
2024/02/14 23:29:35;;;;;;;47.80;23.60;;;;;;;6.00;79.73;99051.52;435467;1256;107987;-40
2024/02/14 23:39:42;;;;;;;47.70;23.50;;;;;;;5.91;80.05;99044.78;435264;1251;99221;-40
2024/02/14 23:49:49;;;;;;;36.70;21.90;;;;;;;5.91;80.14;99039.86;435232;1254;111406;-39
2024/02/14 23:59:57;;;;;;;37.40;21.40;;;;;;;5.99;80.43;99053.02;435288;1255;107925;-41
